sensor_id;sensor_type;location;lat;lon;timestamp;P1;durP1;ratioP1;P2;durP2;ratioP2
18048;SDS011;9149;47.002;8.604;2024-02-14T00:00:01;2.40;;;1.57;;
18048;SDS011;9149;47.002;8.604;2024-02-14T00:02:32;6.40;;;1.83;;
18048;SDS011;9149;47.002;8.604;2024-02-14T00:04:59;4.03;;;1.87;;
18048;SDS011;9149;47.002;8.604;2024-02-14T00:07:29;2.50;;;1.60;;
18048;SDS011;9149;47.002;8.604;2024-02-14T00:09:57;3.10;;;1.90;;
18048;SDS011;9149;47.002;8.604;2024-02-14T00:12:24;2.57;;;1.70;;
18048;SDS011;9149;47.002;8.604;2024-02-14T00:14:53;2.50;;;1.53;;
18048;SDS011;9149;47.002;8.604;2024-02-14T00:17:21;4.00;;;1.60;;
18048;SDS011;9149;47.002;8.604;2024-02-14T00:19:49;2.00;;;1.80;;
18048;SDS011;9149;47.002;8.604;2024-02-14T00:22:17;2.47;;;1.80;;
18048;SDS011;9149;47.002;8.604;2024-02-14T00:24:44;5.60;;;2.00;;
18048;SDS011;9149;47.002;8.604;2024-02-14T00:27:12;4.00;;;1.87;;
18048;SDS011;9149;47.002;8.604;2024-02-14T00:29:40;2.73;;;1.83;;
18048;SDS011;9149;47.002;8.604;2024-02-14T00:32:12;3.00;;;1.90;;
18048;SDS011;9149;47.002;8.604;2024-02-14T00:34:45;2.77;;;1.87;;
18048;SDS011;9149;47.002;8.604;2024-02-14T00:37:13;2.20;;;1.73;;
18048;SDS011;9149;47.002;8.604;2024-02-14T00:39:41;2.37;;;1.60;;
18048;SDS011;9149;47.002;8.604;2024-02-14T00:42:08;3.87;;;1.63;;
18048;SDS011;9149;47.002;8.604;2024-02-14T00:44:36;3.80;;;1.80;;
18048;SDS011;9149;47.002;8.604;2024-02-14T00:47:04;3.10;;;1.70;;
18048;SDS011;9149;47.002;8.604;2024-02-14T00:49:35;5.67;;;2.13;;
18048;SDS011;9149;47.002;8.604;2024-02-14T00:52:04;2.30;;;1.90;;
18048;SDS011;9149;47.002;8.604;2024-02-14T00:54:33;3.80;;;2.20;;
18048;SDS011;9149;47.002;8.604;2024-02-14T00:57:01;2.80;;;2.00;;
18048;SDS011;9149;47.002;8.604;2024-02-14T00:59:29;2.93;;;1.90;;
18048;SDS011;9149;47.002;8.604;2024-02-14T01:01:57;2.13;;;1.60;;
18048;SDS011;9149;47.002;8.604;2024-02-14T01:04:25;3.93;;;1.83;;
18048;SDS011;9149;47.002;8.604;2024-02-14T01:06:54;2.73;;;1.87;;
18048;SDS011;9149;47.002;8.604;2024-02-14T01:09:22;2.47;;;1.60;;
18048;SDS011;9149;47.002;8.604;2024-02-14T01:11:50;3.80;;;1.83;;
18048;SDS011;9149;47.002;8.604;2024-02-14T01:14:17;3.27;;;1.57;;
18048;SDS011;9149;47.002;8.604;2024-02-14T01:16:45;1.87;;;1.50;;
18048;SDS011;9149;47.002;8.604;2024-02-14T01:19:13;11.10;;;1.90;;
18048;SDS011;9149;47.002;8.604;2024-02-14T01:21:41;1.83;;;1.30;;
18048;SDS011;9149;47.002;8.604;2024-02-14T01:24:10;2.33;;;1.50;;
18048;SDS011;9149;47.002;8.604;2024-02-14T01:26:39;1.97;;;1.47;;
18048;SDS011;9149;47.002;8.604;2024-02-14T01:29:06;1.70;;;1.50;;
18048;SDS011;9149;47.002;8.604;2024-02-14T01:31:34;2.20;;;1.47;;
18048;SDS011;9149;47.002;8.604;2024-02-14T01:34:02;3.23;;;1.47;;
18048;SDS011;9149;47.002;8.604;2024-02-14T01:36:30;2.63;;;1.27;;
18048;SDS011;9149;47.002;8.604;2024-02-14T01:38:57;1.37;;;1.23;;
18048;SDS011;9149;47.002;8.604;2024-02-14T01:41:27;2.53;;;1.10;;
18048;SDS011;9149;47.002;8.604;2024-02-14T01:43:54;2.43;;;1.37;;
18048;SDS011;9149;47.002;8.604;2024-02-14T01:46:22;1.40;;;1.30;;
18048;SDS011;9149;47.002;8.604;2024-02-14T01:48:55;1.10;;;1.00;;
18048;SDS011;9149;47.002;8.604;2024-02-14T01:51:23;1.40;;;1.10;;
18048;SDS011;9149;47.002;8.604;2024-02-14T01:53:51;2.70;;;1.50;;
18048;SDS011;9149;47.002;8.604;2024-02-14T01:56:19;2.07;;;1.60;;
18048;SDS011;9149;47.002;8.604;2024-02-14T01:58:48;5.03;;;1.47;;
18048;SDS011;9149;47.002;8.604;2024-02-14T02:01:16;1.50;;;1.40;;
18048;SDS011;9149;47.002;8.604;2024-02-14T02:03:45;3.00;;;1.53;;
18048;SDS011;9149;47.002;8.604;2024-02-14T02:06:13;2.80;;;1.60;;
18048;SDS011;9149;47.002;8.604;2024-02-14T02:08:42;4.27;;;1.50;;
18048;SDS011;9149;47.002;8.604;2024-02-14T02:11:10;2.97;;;1.80;;
18048;SDS011;9149;47.002;8.604;2024-02-14T02:13:59;2.60;;;1.60;;
18048;SDS011;9149;47.002;8.604;2024-02-14T02:16:46;3.63;;;1.60;;
18048;SDS011;9149;47.002;8.604;2024-02-14T02:19:34;2.07;;;1.43;;
18048;SDS011;9149;47.002;8.604;2024-02-14T02:22:22;2.43;;;1.67;;
18048;SDS011;9149;47.002;8.604;2024-02-14T02:25:11;1.87;;;1.43;;
18048;SDS011;9149;47.002;8.604;2024-02-14T02:27:59;2.93;;;1.70;;
18048;SDS011;9149;47.002;8.604;2024-02-14T02:30:31;4.83;;;1.33;;
18048;SDS011;9149;47.002;8.604;2024-02-14T02:33:01;3.80;;;1.50;;
18048;SDS011;9149;47.002;8.604;2024-02-14T02:35:30;2.90;;;1.70;;
18048;SDS011;9149;47.002;8.604;2024-02-14T02:38:16;1.47;;;1.37;;
18048;SDS011;9149;47.002;8.604;2024-02-14T02:41:07;1.93;;;1.50;;
18048;SDS011;9149;47.002;8.604;2024-02-14T02:43:55;2.33;;;1.77;;
18048;SDS011;9149;47.002;8.604;2024-02-14T02:46:36;1.83;;;1.23;;
18048;SDS011;9149;47.002;8.604;2024-02-14T02:49:23;2.03;;;1.40;;
18048;SDS011;9149;47.002;8.604;2024-02-14T02:51:55;3.70;;;1.53;;
18048;SDS011;9149;47.002;8.604;2024-02-14T02:54:39;1.40;;;1.30;;
18048;SDS011;9149;47.002;8.604;2024-02-14T02:57:24;3.30;;;1.47;;
18048;SDS011;9149;47.002;8.604;2024-02-14T02:59:53;3.33;;;1.57;;
18048;SDS011;9149;47.002;8.604;2024-02-14T03:02:20;1.80;;;1.60;;
18048;SDS011;9149;47.002;8.604;2024-02-14T03:05:09;2.50;;;1.50;;
18048;SDS011;9149;47.002;8.604;2024-02-14T03:07:57;2.20;;;1.50;;
18048;SDS011;9149;47.002;8.604;2024-02-14T03:10:45;1.90;;;1.50;;
18048;SDS011;9149;47.002;8.604;2024-02-14T03:13:34;2.07;;;1.37;;
18048;SDS011;9149;47.002;8.604;2024-02-14T03:16:22;1.50;;;1.30;;
18048;SDS011;9149;47.002;8.604;2024-02-14T03:18:50;2.30;;;1.40;;
18048;SDS011;9149;47.002;8.604;2024-02-14T03:21:18;2.10;;;1.40;;
18048;SDS011;9149;47.002;8.604;2024-02-14T03:23:46;1.57;;;1.47;;
18048;SDS011;9149;47.002;8.604;2024-02-14T03:26:14;1.80;;;1.40;;
18048;SDS011;9149;47.002;8.604;2024-02-14T03:28:43;2.20;;;1.50;;
18048;SDS011;9149;47.002;8.604;2024-02-14T03:31:10;2.50;;;1.60;;
18048;SDS011;9149;47.002;8.604;2024-02-14T03:33:42;2.70;;;1.40;;
18048;SDS011;9149;47.002;8.604;2024-02-14T03:36:10;1.90;;;1.47;;
18048;SDS011;9149;47.002;8.604;2024-02-14T03:38:38;3.13;;;1.50;;
18048;SDS011;9149;47.002;8.604;2024-02-14T03:41:06;2.60;;;1.83;;
18048;SDS011;9149;47.002;8.604;2024-02-14T03:43:34;2.77;;;1.60;;
18048;SDS011;9149;47.002;8.604;2024-02-14T03:46:04;4.00;;;1.70;;
18048;SDS011;9149;47.002;8.604;2024-02-14T03:48:31;2.97;;;1.70;;
18048;SDS011;9149;47.002;8.604;2024-02-14T03:51:00;2.00;;;1.50;;
18048;SDS011;9149;47.002;8.604;2024-02-14T03:53:27;1.47;;;1.37;;
18048;SDS011;9149;47.002;8.604;2024-02-14T03:55:55;2.40;;;1.40;;
18048;SDS011;9149;47.002;8.604;2024-02-14T03:58:23;1.80;;;1.43;;
18048;SDS011;9149;47.002;8.604;2024-02-14T04:00:51;2.60;;;1.50;;
18048;SDS011;9149;47.002;8.604;2024-02-14T04:03:20;1.27;;;1.17;;
18048;SDS011;9149;47.002;8.604;2024-02-14T04:05:48;1.97;;;1.60;;
18048;SDS011;9149;47.002;8.604;2024-02-14T04:08:16;2.47;;;1.33;;
18048;SDS011;9149;47.002;8.604;2024-02-14T04:10:44;1.40;;;1.30;;
18048;SDS011;9149;47.002;8.604;2024-02-14T04:13:12;1.70;;;1.47;;
18048;SDS011;9149;47.002;8.604;2024-02-14T04:15:40;1.50;;;1.40;;
18048;SDS011;9149;47.002;8.604;2024-02-14T04:18:11;1.30;;;1.20;;
18048;SDS011;9149;47.002;8.604;2024-02-14T04:20:40;2.50;;;1.40;;
18048;SDS011;9149;47.002;8.604;2024-02-14T04:23:10;2.00;;;1.30;;
18048;SDS011;9149;47.002;8.604;2024-02-14T04:25:38;1.57;;;1.40;;
18048;SDS011;9149;47.002;8.604;2024-02-14T04:28:06;1.40;;;1.30;;
18048;SDS011;9149;47.002;8.604;2024-02-14T04:30:34;1.10;;;1.10;;
18048;SDS011;9149;47.002;8.604;2024-02-14T04:33:09;1.77;;;1.43;;
18048;SDS011;9149;47.002;8.604;2024-02-14T04:35:41;4.93;;;1.50;;
18048;SDS011;9149;47.002;8.604;2024-02-14T04:38:09;1.50;;;1.40;;
18048;SDS011;9149;47.002;8.604;2024-02-14T04:40:37;5.33;;;3.60;;
18048;SDS011;9149;47.002;8.604;2024-02-14T04:43:05;3.17;;;2.10;;
18048;SDS011;9149;47.002;8.604;2024-02-14T04:45:33;1.30;;;1.20;;
18048;SDS011;9149;47.002;8.604;2024-02-14T04:48:02;1.30;;;1.20;;
18048;SDS011;9149;47.002;8.604;2024-02-14T04:50:30;1.83;;;1.27;;
18048;SDS011;9149;47.002;8.604;2024-02-14T04:53:00;2.13;;;1.30;;
18048;SDS011;9149;47.002;8.604;2024-02-14T04:55:27;1.13;;;1.00;;
18048;SDS011;9149;47.002;8.604;2024-02-14T04:57:55;1.10;;;1.00;;
18048;SDS011;9149;47.002;8.604;2024-02-14T05:00:23;2.80;;;1.03;;
18048;SDS011;9149;47.002;8.604;2024-02-14T05:02:51;1.57;;;1.20;;
18048;SDS011;9149;47.002;8.604;2024-02-14T05:05:18;1.00;;;1.00;;
18048;SDS011;9149;47.002;8.604;2024-02-14T05:07:53;2.17;;;1.13;;
18048;SDS011;9149;47.002;8.604;2024-02-14T05:10:22;2.03;;;1.00;;
18048;SDS011;9149;47.002;8.604;2024-02-14T05:12:50;0.97;;;0.97;;
18048;SDS011;9149;47.002;8.604;2024-02-14T05:15:17;1.20;;;1.10;;
18048;SDS011;9149;47.002;8.604;2024-02-14T05:17:45;1.13;;;1.07;;
18048;SDS011;9149;47.002;8.604;2024-02-14T05:20:13;0.90;;;0.90;;
18048;SDS011;9149;47.002;8.604;2024-02-14T05:22:41;1.20;;;1.10;;
18048;SDS011;9149;47.002;8.604;2024-02-14T05:25:08;1.57;;;1.23;;
18048;SDS011;9149;47.002;8.604;2024-02-14T05:27:51;1.13;;;1.00;;
18048;SDS011;9149;47.002;8.604;2024-02-14T05:30:19;1.37;;;1.17;;
18048;SDS011;9149;47.002;8.604;2024-02-14T05:32:58;2.33;;;1.60;;
18048;SDS011;9149;47.002;8.604;2024-02-14T05:35:27;1.80;;;1.40;;
18048;SDS011;9149;47.002;8.604;2024-02-14T05:37:55;1.40;;;1.30;;
18048;SDS011;9149;47.002;8.604;2024-02-14T05:40:23;2.83;;;1.60;;
18048;SDS011;9149;47.002;8.604;2024-02-14T05:42:52;4.60;;;1.57;;
18048;SDS011;9149;47.002;8.604;2024-02-14T05:45:20;2.87;;;1.53;;
18048;SDS011;9149;47.002;8.604;2024-02-14T05:47:47;4.60;;;1.70;;
18048;SDS011;9149;47.002;8.604;2024-02-14T05:50:15;3.37;;;1.60;;
18048;SDS011;9149;47.002;8.604;2024-02-14T05:52:43;2.20;;;1.60;;
18048;SDS011;9149;47.002;8.604;2024-02-14T05:55:11;2.43;;;1.50;;
18048;SDS011;9149;47.002;8.604;2024-02-14T05:57:49;1.57;;;1.37;;
18048;SDS011;9149;47.002;8.604;2024-02-14T06:00:19;4.27;;;1.30;;
18048;SDS011;9149;47.002;8.604;2024-02-14T06:02:53;2.53;;;1.50;;
18048;SDS011;9149;47.002;8.604;2024-02-14T06:05:20;2.40;;;1.60;;
18048;SDS011;9149;47.002;8.604;2024-02-14T06:07:49;4.97;;;1.60;;
18048;SDS011;9149;47.002;8.604;2024-02-14T06:10:17;3.27;;;1.53;;
18048;SDS011;9149;47.002;8.604;2024-02-14T06:12:45;3.80;;;1.83;;
18048;SDS011;9149;47.002;8.604;2024-02-14T06:15:14;2.90;;;1.63;;
18048;SDS011;9149;47.002;8.604;2024-02-14T06:17:44;1.97;;;1.70;;
18048;SDS011;9149;47.002;8.604;2024-02-14T06:20:12;5.57;;;1.60;;
18048;SDS011;9149;47.002;8.604;2024-02-14T06:22:39;1.70;;;1.50;;
18048;SDS011;9149;47.002;8.604;2024-02-14T06:25:19;9.33;;;1.37;;
18048;SDS011;9149;47.002;8.604;2024-02-14T06:27:55;1.40;;;1.30;;
18048;SDS011;9149;47.002;8.604;2024-02-14T06:30:23;1.70;;;1.47;;
18048;SDS011;9149;47.002;8.604;2024-02-14T06:32:56;2.23;;;1.60;;
18048;SDS011;9149;47.002;8.604;2024-02-14T06:35:27;5.50;;;2.00;;
18048;SDS011;9149;47.002;8.604;2024-02-14T06:37:57;2.43;;;1.50;;
18048;SDS011;9149;47.002;8.604;2024-02-14T06:40:30;1.40;;;1.30;;
18048;SDS011;9149;47.002;8.604;2024-02-14T06:42:58;1.83;;;1.20;;
18048;SDS011;9149;47.002;8.604;2024-02-14T06:45:28;8.13;;;3.70;;
18048;SDS011;9149;47.002;8.604;2024-02-14T06:48:07;10.23;;;2.93;;
18048;SDS011;9149;47.002;8.604;2024-02-14T06:50:35;2.70;;;1.87;;
18048;SDS011;9149;47.002;8.604;2024-02-14T06:53:03;1.47;;;1.23;;
18048;SDS011;9149;47.002;8.604;2024-02-14T06:55:31;2.37;;;1.60;;
18048;SDS011;9149;47.002;8.604;2024-02-14T06:57:59;3.23;;;1.70;;
18048;SDS011;9149;47.002;8.604;2024-02-14T07:00:27;1.63;;;1.10;;
18048;SDS011;9149;47.002;8.604;2024-02-14T07:02:55;1.40;;;1.20;;
18048;SDS011;9149;47.002;8.604;2024-02-14T07:05:24;1.47;;;1.10;;
18048;SDS011;9149;47.002;8.604;2024-02-14T07:07:54;1.43;;;1.20;;
18048;SDS011;9149;47.002;8.604;2024-02-14T07:10:22;2.53;;;1.57;;
18048;SDS011;9149;47.002;8.604;2024-02-14T07:12:49;10.27;;;3.80;;
18048;SDS011;9149;47.002;8.604;2024-02-14T07:15:17;2.40;;;1.40;;
18048;SDS011;9149;47.002;8.604;2024-02-14T07:17:46;2.50;;;1.30;;
18048;SDS011;9149;47.002;8.604;2024-02-14T07:20:14;4.17;;;2.43;;
18048;SDS011;9149;47.002;8.604;2024-02-14T07:22:45;3.23;;;2.17;;
18048;SDS011;9149;47.002;8.604;2024-02-14T07:25:14;1.47;;;1.00;;
18048;SDS011;9149;47.002;8.604;2024-02-14T07:27:41;1.00;;;0.90;;
18048;SDS011;9149;47.002;8.604;2024-02-14T07:30:09;1.60;;;1.20;;
18048;SDS011;9149;47.002;8.604;2024-02-14T07:32:37;1.73;;;1.43;;
18048;SDS011;9149;47.002;8.604;2024-02-14T07:35:06;1.20;;;1.03;;
18048;SDS011;9149;47.002;8.604;2024-02-14T07:37:34;1.07;;;0.97;;
18048;SDS011;9149;47.002;8.604;2024-02-14T07:40:03;1.67;;;1.20;;
18048;SDS011;9149;47.002;8.604;2024-02-14T07:42:36;1.30;;;1.00;;
18048;SDS011;9149;47.002;8.604;2024-02-14T07:45:04;2.30;;;1.10;;
18048;SDS011;9149;47.002;8.604;2024-02-14T07:47:33;2.03;;;1.17;;
18048;SDS011;9149;47.002;8.604;2024-02-14T07:50:01;2.20;;;1.30;;
18048;SDS011;9149;47.002;8.604;2024-02-14T07:52:29;5.13;;;2.00;;
18048;SDS011;9149;47.002;8.604;2024-02-14T07:55:02;2.47;;;1.50;;
18048;SDS011;9149;47.002;8.604;2024-02-14T07:57:31;2.23;;;1.30;;
18048;SDS011;9149;47.002;8.604;2024-02-14T07:59:58;1.90;;;1.17;;
18048;SDS011;9149;47.002;8.604;2024-02-14T08:02:31;1.43;;;1.10;;
18048;SDS011;9149;47.002;8.604;2024-02-14T08:04:59;1.13;;;0.93;;
18048;SDS011;9149;47.002;8.604;2024-02-14T08:07:27;6.93;;;1.50;;
18048;SDS011;9149;47.002;8.604;2024-02-14T08:09:54;2.00;;;1.30;;
18048;SDS011;9149;47.002;8.604;2024-02-14T08:12:24;2.53;;;1.30;;
18048;SDS011;9149;47.002;8.604;2024-02-14T08:14:52;3.57;;;1.20;;
18048;SDS011;9149;47.002;8.604;2024-02-14T08:17:19;1.97;;;1.30;;
18048;SDS011;9149;47.002;8.604;2024-02-14T08:19:47;3.90;;;1.40;;
18048;SDS011;9149;47.002;8.604;2024-02-14T08:22:16;3.80;;;1.60;;
18048;SDS011;9149;47.002;8.604;2024-02-14T08:24:43;4.43;;;1.30;;
18048;SDS011;9149;47.002;8.604;2024-02-14T08:27:12;4.77;;;1.77;;
18048;SDS011;9149;47.002;8.604;2024-02-14T08:29:41;4.87;;;1.53;;
18048;SDS011;9149;47.002;8.604;2024-02-14T08:32:12;8.10;;;1.63;;
18048;SDS011;9149;47.002;8.604;2024-02-14T08:34:39;4.37;;;1.50;;
18048;SDS011;9149;47.002;8.604;2024-02-14T08:37:07;2.67;;;1.45;;
18048;SDS011;9149;47.002;8.604;2024-02-14T08:39:36;6.25;;;1.85;;
18048;SDS011;9149;47.002;8.604;2024-02-14T08:42:04;2.22;;;1.40;;
18048;SDS011;9149;47.002;8.604;2024-02-14T08:44:34;7.55;;;1.70;;
18048;SDS011;9149;47.002;8.604;2024-02-14T08:47:06;2.33;;;1.27;;
18048;SDS011;9149;47.002;8.604;2024-02-14T08:49:33;4.15;;;1.50;;
18048;SDS011;9149;47.002;8.604;2024-02-14T08:52:01;8.13;;;1.75;;
18048;SDS011;9149;47.002;8.604;2024-02-14T08:54:29;9.60;;;1.85;;
18048;SDS011;9149;47.002;8.604;2024-02-14T08:56:59;12.00;;;2.25;;
18048;SDS011;9149;47.002;8.604;2024-02-14T08:59:27;3.90;;;1.10;;
18048;SDS011;9149;47.002;8.604;2024-02-14T09:01:55;2.78;;;0.90;;
18048;SDS011;9149;47.002;8.604;2024-02-14T09:04:24;1.38;;;1.10;;
18048;SDS011;9149;47.002;8.604;2024-02-14T09:06:53;1.75;;;1.23;;
18048;SDS011;9149;47.002;8.604;2024-02-14T09:09:21;3.30;;;1.00;;
18048;SDS011;9149;47.002;8.604;2024-02-14T09:11:49;1.85;;;1.20;;
18048;SDS011;9149;47.002;8.604;2024-02-14T09:14:17;2.95;;;1.20;;
18048;SDS011;9149;47.002;8.604;2024-02-14T09:16:45;3.50;;;1.42;;
18048;SDS011;9149;47.002;8.604;2024-02-14T09:19:13;1.77;;;1.10;;
18048;SDS011;9149;47.002;8.604;2024-02-14T09:21:42;2.25;;;1.25;;
18048;SDS011;9149;47.002;8.604;2024-02-14T09:24:09;3.42;;;1.23;;
18048;SDS011;9149;47.002;8.604;2024-02-14T09:26:38;1.40;;;0.80;;
18048;SDS011;9149;47.002;8.604;2024-02-14T09:29:05;1.73;;;1.00;;
18048;SDS011;9149;47.002;8.604;2024-02-14T09:31:33;5.32;;;1.30;;
18048;SDS011;9149;47.002;8.604;2024-02-14T09:34:01;4.10;;;1.02;;
18048;SDS011;9149;47.002;8.604;2024-02-14T09:36:29;3.70;;;0.90;;
18048;SDS011;9149;47.002;8.604;2024-02-14T09:38:58;1.48;;;0.80;;
18048;SDS011;9149;47.002;8.604;2024-02-14T09:41:29;0.90;;;0.73;;
18048;SDS011;9149;47.002;8.604;2024-02-14T09:44:00;3.05;;;0.80;;
18048;SDS011;9149;47.002;8.604;2024-02-14T09:46:28;3.17;;;1.10;;
18048;SDS011;9149;47.002;8.604;2024-02-14T09:48:57;3.25;;;1.00;;
18048;SDS011;9149;47.002;8.604;2024-02-14T09:51:26;1.85;;;1.00;;
18048;SDS011;9149;47.002;8.604;2024-02-14T09:53:55;2.03;;;0.90;;
18048;SDS011;9149;47.002;8.604;2024-02-14T09:56:25;2.13;;;0.80;;
18048;SDS011;9149;47.002;8.604;2024-02-14T09:58:53;1.20;;;0.93;;
18048;SDS011;9149;47.002;8.604;2024-02-14T10:01:24;2.63;;;1.10;;
18048;SDS011;9149;47.002;8.604;2024-02-14T10:03:53;0.88;;;0.82;;
18048;SDS011;9149;47.002;8.604;2024-02-14T10:06:21;1.75;;;0.90;;
18048;SDS011;9149;47.002;8.604;2024-02-14T10:08:50;1.70;;;1.00;;
18048;SDS011;9149;47.002;8.604;2024-02-14T10:11:30;1.50;;;1.00;;
18048;SDS011;9149;47.002;8.604;2024-02-14T10:14:00;2.22;;;0.85;;
18048;SDS011;9149;47.002;8.604;2024-02-14T10:16:31;1.67;;;0.93;;
18048;SDS011;9149;47.002;8.604;2024-02-14T10:18:58;1.10;;;0.80;;
18048;SDS011;9149;47.002;8.604;2024-02-14T10:21:27;3.25;;;0.95;;
18048;SDS011;9149;47.002;8.604;2024-02-14T10:23:58;2.65;;;1.08;;
18048;SDS011;9149;47.002;8.604;2024-02-14T10:26:27;1.25;;;0.90;;
18048;SDS011;9149;47.002;8.604;2024-02-14T10:28:57;1.77;;;0.93;;
18048;SDS011;9149;47.002;8.604;2024-02-14T10:31:25;2.60;;;1.10;;
18048;SDS011;9149;47.002;8.604;2024-02-14T10:33:53;2.05;;;1.00;;
18048;SDS011;9149;47.002;8.604;2024-02-14T10:36:22;3.20;;;1.20;;
18048;SDS011;9149;47.002;8.604;2024-02-14T10:38:50;3.97;;;1.08;;
18048;SDS011;9149;47.002;8.604;2024-02-14T10:41:18;1.25;;;1.05;;
18048;SDS011;9149;47.002;8.604;2024-02-14T10:43:46;1.58;;;1.00;;
18048;SDS011;9149;47.002;8.604;2024-02-14T10:46:19;1.50;;;1.00;;
18048;SDS011;9149;47.002;8.604;2024-02-14T10:48:48;1.50;;;1.08;;
18048;SDS011;9149;47.002;8.604;2024-02-14T10:51:17;2.05;;;1.00;;
18048;SDS011;9149;47.002;8.604;2024-02-14T10:53:47;1.13;;;0.93;;
18048;SDS011;9149;47.002;8.604;2024-02-14T10:56:17;1.92;;;0.93;;
18048;SDS011;9149;47.002;8.604;2024-02-14T10:58:46;2.15;;;1.10;;
18048;SDS011;9149;47.002;8.604;2024-02-14T11:01:14;1.95;;;1.10;;
18048;SDS011;9149;47.002;8.604;2024-02-14T11:03:44;2.10;;;0.95;;
18048;SDS011;9149;47.002;8.604;2024-02-14T11:06:15;1.15;;;1.00;;
18048;SDS011;9149;47.002;8.604;2024-02-14T11:08:54;1.42;;;0.90;;
18048;SDS011;9149;47.002;8.604;2024-02-14T11:11:22;1.48;;;1.08;;
18048;SDS011;9149;47.002;8.604;2024-02-14T11:13:52;1.25;;;1.10;;
18048;SDS011;9149;47.002;8.604;2024-02-14T11:16:22;1.20;;;0.90;;
18048;SDS011;9149;47.002;8.604;2024-02-14T11:18:52;2.22;;;1.10;;
18048;SDS011;9149;47.002;8.604;2024-02-14T11:21:20;2.42;;;0.98;;
18048;SDS011;9149;47.002;8.604;2024-02-14T11:23:55;2.30;;;1.02;;
18048;SDS011;9149;47.002;8.604;2024-02-14T11:26:25;1.80;;;0.90;;
18048;SDS011;9149;47.002;8.604;2024-02-14T11:28:59;2.38;;;1.00;;
18048;SDS011;9149;47.002;8.604;2024-02-14T11:31:31;1.30;;;0.82;;
18048;SDS011;9149;47.002;8.604;2024-02-14T11:34:04;1.63;;;1.05;;
18048;SDS011;9149;47.002;8.604;2024-02-14T11:36:32;2.03;;;1.08;;
18048;SDS011;9149;47.002;8.604;2024-02-14T11:39:02;1.92;;;0.90;;
18048;SDS011;9149;47.002;8.604;2024-02-14T11:41:30;1.55;;;0.90;;
18048;SDS011;9149;47.002;8.604;2024-02-14T11:44:00;2.70;;;1.10;;
18048;SDS011;9149;47.002;8.604;2024-02-14T11:46:29;1.38;;;0.82;;
18048;SDS011;9149;47.002;8.604;2024-02-14T11:48:57;1.13;;;0.90;;
18048;SDS011;9149;47.002;8.604;2024-02-14T11:51:28;0.98;;;0.80;;
18048;SDS011;9149;47.002;8.604;2024-02-14T11:53:57;1.85;;;1.00;;
18048;SDS011;9149;47.002;8.604;2024-02-14T11:56:31;1.13;;;0.90;;
18048;SDS011;9149;47.002;8.604;2024-02-14T11:59:00;1.40;;;0.90;;
18048;SDS011;9149;47.002;8.604;2024-02-14T12:01:30;1.05;;;0.85;;
18048;SDS011;9149;47.002;8.604;2024-02-14T12:03:57;2.00;;;1.00;;
18048;SDS011;9149;47.002;8.604;2024-02-14T12:06:25;1.33;;;0.85;;
18048;SDS011;9149;47.002;8.604;2024-02-14T12:08:55;1.77;;;1.08;;
18048;SDS011;9149;47.002;8.604;2024-02-14T12:11:23;1.38;;;0.90;;
18048;SDS011;9149;47.002;8.604;2024-02-14T12:13:52;2.22;;;1.00;;
18048;SDS011;9149;47.002;8.604;2024-02-14T12:16:19;1.52;;;0.80;;
18048;SDS011;9149;47.002;8.604;2024-02-14T12:18:48;1.30;;;0.80;;
18048;SDS011;9149;47.002;8.604;2024-02-14T12:21:15;4.30;;;0.85;;
18048;SDS011;9149;47.002;8.604;2024-02-14T12:23:43;2.25;;;0.90;;
18048;SDS011;9149;47.002;8.604;2024-02-14T12:26:12;1.63;;;0.88;;
18048;SDS011;9149;47.002;8.604;2024-02-14T12:28:45;1.60;;;0.88;;
18048;SDS011;9149;47.002;8.604;2024-02-14T12:31:32;1.20;;;0.80;;
18048;SDS011;9149;47.002;8.604;2024-02-14T12:34:00;2.55;;;0.85;;
18048;SDS011;9149;47.002;8.604;2024-02-14T12:36:29;2.55;;;1.02;;
18048;SDS011;9149;47.002;8.604;2024-02-14T12:38:56;5.45;;;1.30;;
18048;SDS011;9149;47.002;8.604;2024-02-14T12:41:25;1.95;;;0.90;;
18048;SDS011;9149;47.002;8.604;2024-02-14T12:43:56;1.92;;;0.70;;
18048;SDS011;9149;47.002;8.604;2024-02-14T12:46:24;1.70;;;0.90;;
18048;SDS011;9149;47.002;8.604;2024-02-14T12:48:52;2.13;;;0.70;;
18048;SDS011;9149;47.002;8.604;2024-02-14T12:51:19;9.93;;;1.00;;
18048;SDS011;9149;47.002;8.604;2024-02-14T12:53:48;2.28;;;1.00;;
18048;SDS011;9149;47.002;8.604;2024-02-14T12:56:15;2.08;;;0.65;;
18048;SDS011;9149;47.002;8.604;2024-02-14T12:58:45;2.65;;;0.80;;
18048;SDS011;9149;47.002;8.604;2024-02-14T13:01:13;2.90;;;1.40;;
18048;SDS011;9149;47.002;8.604;2024-02-14T13:03:41;2.90;;;0.85;;
18048;SDS011;9149;47.002;8.604;2024-02-14T13:06:09;7.00;;;0.75;;
18048;SDS011;9149;47.002;8.604;2024-02-14T13:08:37;1.27;;;0.82;;
18048;SDS011;9149;47.002;8.604;2024-02-14T13:11:06;1.85;;;0.98;;
18048;SDS011;9149;47.002;8.604;2024-02-14T13:13:35;1.40;;;0.73;;
18048;SDS011;9149;47.002;8.604;2024-02-14T13:16:04;2.63;;;1.20;;
18048;SDS011;9149;47.002;8.604;2024-02-14T13:18:33;1.10;;;0.73;;
18048;SDS011;9149;47.002;8.604;2024-02-14T13:21:02;1.00;;;0.70;;
18048;SDS011;9149;47.002;8.604;2024-02-14T13:23:47;1.60;;;0.75;;
18048;SDS011;9149;47.002;8.604;2024-02-14T13:26:15;0.98;;;0.63;;
18048;SDS011;9149;47.002;8.604;2024-02-14T13:28:43;0.80;;;0.60;;
18048;SDS011;9149;47.002;8.604;2024-02-14T13:31:13;2.10;;;0.75;;
18048;SDS011;9149;47.002;8.604;2024-02-14T13:33:40;1.90;;;0.70;;
18048;SDS011;9149;47.002;8.604;2024-02-14T13:36:08;2.55;;;0.90;;
18048;SDS011;9149;47.002;8.604;2024-02-14T13:38:36;3.60;;;1.17;;
18048;SDS011;9149;47.002;8.604;2024-02-14T13:41:04;1.27;;;0.80;;
18048;SDS011;9149;47.002;8.604;2024-02-14T13:43:32;7.70;;;0.80;;
18048;SDS011;9149;47.002;8.604;2024-02-14T13:46:00;1.75;;;0.70;;
18048;SDS011;9149;47.002;8.604;2024-02-14T13:48:29;1.65;;;0.70;;
18048;SDS011;9149;47.002;8.604;2024-02-14T13:50:57;0.88;;;0.75;;
18048;SDS011;9149;47.002;8.604;2024-02-14T13:53:25;1.77;;;1.00;;
18048;SDS011;9149;47.002;8.604;2024-02-14T13:55:53;1.30;;;0.70;;
18048;SDS011;9149;47.002;8.604;2024-02-14T13:58:20;1.05;;;0.70;;
18048;SDS011;9149;47.002;8.604;2024-02-14T14:00:48;1.25;;;0.90;;
18048;SDS011;9149;47.002;8.604;2024-02-14T14:03:16;1.58;;;0.88;;
18048;SDS011;9149;47.002;8.604;2024-02-14T14:05:45;1.98;;;0.93;;
18048;SDS011;9149;47.002;8.604;2024-02-14T14:08:13;1.95;;;0.88;;
18048;SDS011;9149;47.002;8.604;2024-02-14T14:10:41;0.80;;;0.70;;
18048;SDS011;9149;47.002;8.604;2024-02-14T14:13:09;1.95;;;1.00;;
18048;SDS011;9149;47.002;8.604;2024-02-14T14:15:37;1.67;;;0.90;;
18048;SDS011;9149;47.002;8.604;2024-02-14T14:18:05;1.33;;;0.90;;
18048;SDS011;9149;47.002;8.604;2024-02-14T14:20:35;1.95;;;0.90;;
18048;SDS011;9149;47.002;8.604;2024-02-14T14:23:04;1.60;;;0.90;;
18048;SDS011;9149;47.002;8.604;2024-02-14T14:25:32;1.30;;;0.80;;
18048;SDS011;9149;47.002;8.604;2024-02-14T14:28:00;2.05;;;1.00;;
18048;SDS011;9149;47.002;8.604;2024-02-14T14:30:31;2.10;;;1.10;;
18048;SDS011;9149;47.002;8.604;2024-02-14T14:32:58;1.55;;;0.80;;
18048;SDS011;9149;47.002;8.604;2024-02-14T14:35:26;0.93;;;0.82;;
18048;SDS011;9149;47.002;8.604;2024-02-14T14:37:55;1.13;;;0.70;;
18048;SDS011;9149;47.002;8.604;2024-02-14T14:40:24;2.00;;;0.80;;
18048;SDS011;9149;47.002;8.604;2024-02-14T14:42:53;1.60;;;0.90;;
18048;SDS011;9149;47.002;8.604;2024-02-14T14:45:20;1.65;;;0.90;;
18048;SDS011;9149;47.002;8.604;2024-02-14T14:47:48;0.95;;;0.70;;
18048;SDS011;9149;47.002;8.604;2024-02-14T14:50:16;2.10;;;0.98;;
18048;SDS011;9149;47.002;8.604;2024-02-14T14:52:44;1.50;;;0.90;;
18048;SDS011;9149;47.002;8.604;2024-02-14T14:55:12;3.95;;;0.80;;
18048;SDS011;9149;47.002;8.604;2024-02-14T14:57:41;3.70;;;1.05;;
18048;SDS011;9149;47.002;8.604;2024-02-14T15:00:10;1.25;;;0.82;;
18048;SDS011;9149;47.002;8.604;2024-02-14T15:02:38;1.15;;;0.80;;
18048;SDS011;9149;47.002;8.604;2024-02-14T15:05:07;1.42;;;1.00;;
18048;SDS011;9149;47.002;8.604;2024-02-14T15:07:35;3.28;;;0.90;;
18048;SDS011;9149;47.002;8.604;2024-02-14T15:10:03;1.05;;;0.82;;
18048;SDS011;9149;47.002;8.604;2024-02-14T15:12:31;1.35;;;0.90;;
18048;SDS011;9149;47.002;8.604;2024-02-14T15:15:03;1.15;;;0.85;;